Nespelem, WA (99155)

10:17 PM PDT on July 25, 2016 (GMT -0700)
Omak | | Change Station
Active Advisory: Flash Flood Warning

Elev 1302 ft 48.46 °N, 119.52 °W | Updated 10 minutes ago

Scattered Clouds
Scattered Clouds
76 °F
Feels Like 76 °F
N
13
Wind Variable Wind from NW

Today
High -- | Low -- °F
--% Chance of Precip.
Yesterday
High -- | Low -- °F
Precip. -- in
Pressure 29.96 in
Visibility 10.0 miles
Clouds Scattered Clouds 11000 ft
Dew Point 55 °F
Humidity 48%
Rainfall 0.00 in
Snow Depth Not available.
5:24 AM 8:41 PM
Waning Gibbous, 58% visible
SPECI KOMK 260507Z AUTO 32011KT 10SM VCTS SCT110 24/13 A2996 RMK AO2 LTG DSNT W AND NW T02440128
Pressure 29.96 in
Visibility 10.0 miles
Clouds Scattered Clouds 11000 ft
Dew Point 55 °F
Humidity 48%
Rainfall 0.00 in
Snow Depth Not available.
5:24 AM 8:41 PM
Waning Gibbous, 58% visible
SPECI KOMK 260507Z AUTO 32011KT 10SM VCTS SCT110 24/13 A2996 RMK AO2 LTG DSNT W AND NW T02440128

10-Day Weather Forecast

Almanac

Astronomy

Jul. 25, 2016 Rise Set
Actual Time
Civil Twilight
Nautical Twilight
Astronomical Twilight
Moon
Length of Visible Light
Length of Day
Tomorrow will be .
, % of the Moon is Illuminated

Today's Extremes

State Highs State Lows

Community

WunderPhotos

Upload Photos

1,927,538 photos uploaded!

WunderBlog® & News

Nearby

Air Quality

  Air Quality AQ Index Pollutant
Not available.

Snow Depth

Station Depth Elevation

Earthquake Activity

City Distance Mag. Time & Date
Minimum magnitude displayed is 2.5.

Coastal Water Temperatures

Place Temperature

Stations

Nearby Weather Stations

Station Location Temp. Windchill Dew Point Humidity Wind Precip. Elev Updated Type
                   

Watches & Warnings

Flash Flood Warning
Issued: 9:20 PM PDT Jul. 25, 2016 – National Weather Service

... The Flash Flood Warning remains in effect until 1030 PM PDT for
northern Okanogan County...

At 913 PM PDT... Doppler radar indicated thunderstorms weakening over
the flood threat area. Radar also estimates around 3.5 inches of
rain has fallen. The primary threat will be Road washouts along
wickiup creek and sarsapkin creek. No flash flooding has been
reported yet... with local officials checking out this remote area.

Precautionary/preparedness actions...

Move to higher ground if needed... and beware aware of Road washouts.
Please report flooding to your local law enforcement agency when you
can do so safely.


Lat... Lon 4882 11971 4877 11968 4873 11968 4868 11974
      4871 11983 4879 11981